createdAt,value
2017-05-23T04:27:14.264Z,54.10
2017-05-23T04:28:13.144Z,54.12
2017-05-23T04:29:13.141Z,54.11
2017-05-23T04:30:14.162Z,54.11
2017-05-23T04:31:13.910Z,54.13
2017-05-23T04:32:12.930Z,54.12
2017-05-23T04:33:14.176Z,54.12
2017-05-23T04:34:11.635Z,54.12
2017-05-23T04:35:14.915Z,54.11
2017-05-23T04:36:10.995Z,54.12
2017-05-23T04:37:14.252Z,54.11
2017-05-23T04:38:13.363Z,54.13
2017-05-23T04:39:13.094Z,54.13
2017-05-23T04:40:14.324Z,54.13
2017-05-23T04:41:13.367Z,54.11
2017-05-23T04:42:14.957Z,54.11
2017-05-23T04:43:13.230Z,54.12
2017-05-23T04:44:11.822Z,54.13
2017-05-23T04:45:13.530Z,53.31
2017-05-23T04:46:13.843Z,53.95
2017-05-23T04:47:11.573Z,54.05
2017-05-23T04:48:13.365Z,54.08
2017-05-23T04:49:13.725Z,54.09
2017-05-23T04:50:14.155Z,54.11
2017-05-23T04:51:14.974Z,54.11
2017-05-23T04:52:13.895Z,53.86
2017-05-23T04:53:14.484Z,53.26
2017-05-23T04:54:14.063Z,53.10
2017-05-23T04:55:13.815Z,53.18
2017-05-23T04:56:14.113Z,53.81
2017-05-23T04:57:13.777Z,53.96
2017-05-23T04:58:14.391Z,54.00
2017-05-23T04:59:14.144Z,54.06
2017-05-23T05:00:14.171Z,54.07
2017-05-23T05:01:13.449Z,54.09
2017-05-23T05:02:14.709Z,54.09
2017-05-23T05:03:14.111Z,54.08
2017-05-23T05:04:15.370Z,54.10
2017-05-23T05:05:12.091Z,54.14
2017-05-23T05:06:14.395Z,53.25
2017-05-23T05:07:14.266Z,53.08
2017-05-23T05:08:14.493Z,53.01
2017-05-23T05:09:14.136Z,52.99
2017-05-23T05:10:10.368Z,52.93
2017-05-23T05:11:14.404Z,52.93
2017-05-23T05:12:14.407Z,52.93
2017-05-23T05:13:15.054Z,52.92
2017-05-23T05:14:13.499Z,52.90
2017-05-23T05:15:13.966Z,52.96
2017-05-23T05:16:13.450Z,53.72
2017-05-23T05:17:14.592Z,53.89
2017-05-23T05:18:15.280Z,53.97
2017-05-23T05:19:13.766Z,54.00
2017-05-23T05:20:14.548Z,53.86
2017-05-23T05:21:14.831Z,53.20
2017-05-23T05:22:12.379Z,53.07
2017-05-23T05:23:11.400Z,52.99
2017-05-23T05:24:14.341Z,52.90
2017-05-23T05:25:14.006Z,52.94
2017-05-23T05:26:13.339Z,52.92
2017-05-23T05:27:13.977Z,52.86
2017-05-23T05:28:13.475Z,52.88
2017-05-23T05:29:14.967Z,52.89
2017-05-23T05:30:13.480Z,52.91
2017-05-23T05:31:13.789Z,52.89
2017-05-23T05:32:15.421Z,53.12
2017-05-23T05:33:14.213Z,53.56
2017-05-23T05:34:13.708Z,53.38
2017-05-23T05:35:13.991Z,53.82
2017-05-23T05:36:14.207Z,53.94
2017-05-23T05:37:15.221Z,54.00
2017-05-23T05:38:12.165Z,54.04
2017-05-23T05:39:16.406Z,53.20
2017-05-23T05:40:14.161Z,53.33
2017-05-23T05:41:11.544Z,53.82
2017-05-23T05:42:14.285Z,53.96
2017-05-23T05:43:11.241Z,54.01
2017-05-23T05:44:11.345Z,54.05
2017-05-23T05:45:12.450Z,54.05
2017-05-23T05:46:13.987Z,54.06
2017-05-23T05:47:13.708Z,54.07
2017-05-23T05:48:14.089Z,54.08
2017-05-23T05:49:13.538Z,54.09
2017-05-23T05:50:12.533Z,54.10
2017-05-23T05:51:11.639Z,54.09
2017-05-23T05:52:14.554Z,54.09
2017-05-23T05:53:14.020Z,54.09
2017-05-23T05:54:13.711Z,54.10
2017-05-23T05:55:15.196Z,54.09
2017-05-23T05:56:14.825Z,54.11
2017-05-23T05:57:14.827Z,54.10
2017-05-23T05:58:15.112Z,54.10
2017-05-23T05:59:13.893Z,54.10
2017-05-23T06:00:10.833Z,54.12
2017-05-23T06:01:14.138Z,53.55
2017-05-23T06:02:13.425Z,53.93
2017-05-23T06:03:14.168Z,54.03
2017-05-23T06:04:14.186Z,54.06
2017-05-23T06:05:14.630Z,54.08
2017-05-23T06:06:14.987Z,54.09
2017-05-23T06:07:11.738Z,53.95
2017-05-23T06:08:13.859Z,53.24
2017-05-23T06:09:14.505Z,53.09
2017-05-23T06:10:13.767Z,53.04
2017-05-23T06:11:15.051Z,52.98
2017-05-23T06:12:13.304Z,53.77
2017-05-23T06:13:14.074Z,53.93
2017-05-23T06:14:11.684Z,53.99
2017-05-23T06:15:14.955Z,53.19
2017-05-23T06:16:14.033Z,53.05
2017-05-23T06:17:14.199Z,52.97
2017-05-23T06:18:14.392Z,53.77
2017-05-23T06:19:13.878Z,53.92
2017-05-23T06:20:14.550Z,53.98
2017-05-23T06:21:14.173Z,54.03
2017-05-23T06:22:16.183Z,54.06
2017-05-23T06:23:14.470Z,54.06
2017-05-23T06:24:14.028Z,54.08
2017-05-23T06:25:13.826Z,54.08
2017-05-23T06:26:14.265Z,54.08
2017-05-23T06:27:14.110Z,54.10
2017-05-23T06:28:13.906Z,54.09
2017-05-23T06:29:11.387Z,54.05
2017-05-23T06:30:15.477Z,54.10
2017-05-23T06:31:12.083Z,54.10
2017-05-23T06:32:10.596Z,54.10
2017-05-23T06:33:14.519Z,54.09
2017-05-23T06:34:14.097Z,54.09
2017-05-23T06:35:13.877Z,54.08
2017-05-23T06:36:15.761Z,53.96
2017-05-23T06:37:14.125Z,54.08
2017-05-23T06:38:15.767Z,54.12
2017-05-23T06:39:14.942Z,54.14
2017-05-23T06:40:13.473Z,54.14
2017-05-23T06:41:13.724Z,54.12
2017-05-23T06:42:14.753Z,54.10
2017-05-23T06:43:14.424Z,54.06
2017-05-23T06:44:14.117Z,54.04
2017-05-23T06:45:14.030Z,54.01
2017-05-23T06:46:14.125Z,54.20
2017-05-23T06:47:13.889Z,54.13
2017-05-23T06:48:14.463Z,54.13
2017-05-23T06:49:13.789Z,54.04
2017-05-23T06:50:14.861Z,53.97
2017-05-23T06:51:15.275Z,53.91
2017-05-23T06:52:11.090Z,54.01
2017-05-23T06:53:13.911Z,53.92
2017-05-23T06:54:15.221Z,53.96
2017-05-23T06:55:13.532Z,53.89
2017-05-23T06:56:14.254Z,53.83
2017-05-23T06:57:14.799Z,53.83
2017-05-23T06:58:14.432Z,53.89
2017-05-23T06:59:13.544Z,53.87
2017-05-23T07:00:14.083Z,53.89
2017-05-23T07:01:13.480Z,53.91
2017-05-23T07:02:14.213Z,53.88
2017-05-23T07:03:13.420Z,54.02
2017-05-23T07:04:14.102Z,53.99
2017-05-23T07:05:13.471Z,54.11
2017-05-23T07:06:15.104Z,54.17
2017-05-23T07:07:13.957Z,53.99
2017-05-23T07:08:14.550Z,53.31
2017-05-23T07:09:13.886Z,53.25
2017-05-23T07:10:15.344Z,53.02
2017-05-23T07:11:14.547Z,53.00
2017-05-23T07:12:15.442Z,53.11
2017-05-23T07:13:14.787Z,53.10
2017-05-23T07:14:15.848Z,53.86
2017-05-23T07:15:14.503Z,54.06
2017-05-23T07:16:14.200Z,54.19
2017-05-23T07:17:13.940Z,54.26
2017-05-23T07:18:13.667Z,54.12
2017-05-23T07:19:14.262Z,53.44
2017-05-23T07:20:14.820Z,53.26
2017-05-23T07:21:14.274Z,53.22
2017-05-23T07:22:13.785Z,53.21
2017-05-23T07:23:14.580Z,53.14
2017-05-23T07:24:12.098Z,53.25
2017-05-23T07:25:13.540Z,53.95
2017-05-23T07:26:13.765Z,54.17
2017-05-23T07:27:14.181Z,54.23
2017-05-23T07:28:13.927Z,54.33
2017-05-23T07:29:13.513Z,54.36
2017-05-23T07:30:15.199Z,54.42
2017-05-23T07:31:13.786Z,54.38
2017-05-23T07:32:15.184Z,54.38
2017-05-23T07:33:15.723Z,54.41
2017-05-23T07:34:14.111Z,54.42
2017-05-23T07:35:15.250Z,54.44
2017-05-23T07:36:13.909Z,54.47
2017-05-23T07:37:11.081Z,54.48
2017-05-23T07:38:14.279Z,54.46
2017-05-23T07:39:14.111Z,54.53
2017-05-23T07:40:13.468Z,54.55
2017-05-23T07:41:13.919Z,54.55
2017-05-23T07:42:13.816Z,54.63
2017-05-23T07:43:14.508Z,54.65
2017-05-23T07:44:14.363Z,54.49
2017-05-23T07:45:15.044Z,54.15
2017-05-23T07:46:13.784Z,54.51
2017-05-23T07:47:14.710Z,54.65
2017-05-23T07:48:14.029Z,54.68
2017-05-23T07:49:13.459Z,54.73
2017-05-23T07:50:14.281Z,54.78
2017-05-23T07:51:11.825Z,54.80
2017-05-23T07:52:14.258Z,53.95
2017-05-23T07:53:14.014Z,54.17
2017-05-23T07:54:13.503Z,54.60
2017-05-23T07:55:15.084Z,54.76
2017-05-23T07:56:13.209Z,54.77
2017-05-23T07:57:14.006Z,54.59
2017-05-23T07:58:15.346Z,54.40
2017-05-23T07:59:14.815Z,54.81
2017-05-23T08:00:14.925Z,55.06
2017-05-23T08:01:15.104Z,55.28
2017-05-23T08:02:14.621Z,55.33
2017-05-23T08:03:14.103Z,55.68
2017-05-23T08:04:15.441Z,55.94
2017-05-23T08:05:14.217Z,55.60
2017-05-23T08:06:14.161Z,55.73
2017-05-23T08:07:13.785Z,55.73
2017-05-23T08:08:14.261Z,55.74
2017-05-23T08:09:11.794Z,55.73
2017-05-23T08:10:13.721Z,55.82
2017-05-23T08:11:14.362Z,56.20
2017-05-23T08:12:13.717Z,57.19
2017-05-23T08:13:15.168Z,56.79
2017-05-23T08:14:13.475Z,56.64
2017-05-23T08:15:15.138Z,57.30
2017-05-23T08:16:13.781Z,56.87
2017-05-23T08:17:14.785Z,56.59
2017-05-23T08:18:14.250Z,56.28
2017-05-23T08:19:14.205Z,56.06
2017-05-23T08:20:13.623Z,55.76
2017-05-23T08:21:14.154Z,55.61
2017-05-23T08:22:13.635Z,56.14
2017-05-23T08:23:14.122Z,56.64
2017-05-23T08:24:13.870Z,57.22
2017-05-23T08:25:12.540Z,57.32
2017-05-23T08:26:13.903Z,57.06
2017-05-23T08:27:13.461Z,57.70
2017-05-23T08:28:14.166Z,57.67
2017-05-23T08:29:14.377Z,57.42
2017-05-23T08:30:14.550Z,57.39
2017-05-23T08:31:14.383Z,57.32
2017-05-23T08:32:15.747Z,57.88
2017-05-23T08:33:14.589Z,56.53
2017-05-23T08:34:15.179Z,56.46
2017-05-23T08:35:13.715Z,56.02
2017-05-23T08:36:14.790Z,55.86
2017-05-23T08:37:14.504Z,55.97
2017-05-23T08:38:14.139Z,57.48
2017-05-23T08:39:13.881Z,57.38
2017-05-23T08:40:15.211Z,57.44
2017-05-23T08:41:13.958Z,57.05
2017-05-23T08:42:13.893Z,57.29
2017-05-23T08:43:13.544Z,57.45
2017-05-23T08:44:14.746Z,57.23
2017-05-23T08:45:14.332Z,57.58
2017-05-23T08:46:14.979Z,57.16
2017-05-23T08:47:14.371Z,57.12
2017-05-23T08:48:14.775Z,56.88
2017-05-23T08:49:14.138Z,56.94
2017-05-23T08:50:14.614Z,56.85
2017-05-23T08:51:14.021Z,56.74
2017-05-23T08:52:13.732Z,56.66
2017-05-23T08:53:14.135Z,56.65
2017-05-23T08:54:13.979Z,56.71
2017-05-23T08:55:13.839Z,56.50
2017-05-23T08:56:14.501Z,56.63
2017-05-23T08:57:14.001Z,56.57
2017-05-23T08:58:15.051Z,56.37
2017-05-23T08:59:13.627Z,55.65
2017-05-23T09:00:14.706Z,55.50
2017-05-23T09:01:14.481Z,55.28
2017-05-23T09:02:14.401Z,55.21
2017-05-23T09:03:13.563Z,55.19
2017-05-23T09:04:14.389Z,55.13
2017-05-23T09:05:13.946Z,55.36
2017-05-23T09:06:14.258Z,55.92
2017-05-23T09:07:14.158Z,56.07
2017-05-23T09:08:13.755Z,56.18
2017-05-23T09:09:14.617Z,56.14
2017-05-23T09:10:14.329Z,56.12
2017-05-23T09:11:14.028Z,56.15
2017-05-23T09:12:13.875Z,56.16
2017-05-23T09:13:12.380Z,56.16
2017-05-23T09:14:14.110Z,55.47
2017-05-23T09:15:13.426Z,55.97
2017-05-23T09:16:11.589Z,56.03
2017-05-23T09:17:14.282Z,56.07
2017-05-23T09:18:11.660Z,56.08
2017-05-23T09:19:13.193Z,55.19
2017-05-23T09:20:11.673Z,54.99
2017-05-23T09:21:14.158Z,54.86
2017-05-23T09:22:13.726Z,55.05
2017-05-23T09:23:12.057Z,55.64
2017-05-23T09:24:14.377Z,55.78
2017-05-23T09:25:14.397Z,55.83
2017-05-23T09:26:14.295Z,55.84
2017-05-23T09:27:14.831Z,55.85
2017-05-23T09:28:14.528Z,55.84
2017-05-23T09:29:16.442Z,55.82
2017-05-23T09:30:14.472Z,55.80
2017-05-23T09:31:12.807Z,55.74
2017-05-23T09:32:14.583Z,55.06
2017-05-23T09:33:14.781Z,55.55
2017-05-23T09:34:14.960Z,55.61
2017-05-23T09:35:10.741Z,55.64
2017-05-23T09:36:13.484Z,54.74
2017-05-23T09:37:14.121Z,54.55
2017-05-23T09:38:11.314Z,54.48
2017-05-23T09:39:14.043Z,54.39
2017-05-23T09:40:13.807Z,54.55
2017-05-23T09:41:14.636Z,55.18
2017-05-23T09:42:14.165Z,55.33
2017-05-23T09:43:11.590Z,55.39
2017-05-23T09:44:14.993Z,55.43
2017-05-23T09:45:13.585Z,55.52
2017-05-23T09:46:14.481Z,55.63
2017-05-23T09:47:13.828Z,55.59
2017-05-23T09:48:14.339Z,55.56
2017-05-23T09:49:14.113Z,55.57
2017-05-23T09:50:13.777Z,55.58
2017-05-23T09:51:14.555Z,55.60
2017-05-23T09:52:11.902Z,55.57
2017-05-23T09:53:14.002Z,55.89
2017-05-23T09:54:11.017Z,56.32
2017-05-23T09:55:14.100Z,56.28
2017-05-23T09:56:13.735Z,56.39
2017-05-23T09:57:14.506Z,56.23
2017-05-23T09:58:13.827Z,56.16
2017-05-23T09:59:14.642Z,56.06
2017-05-23T10:00:14.473Z,55.97
2017-05-23T10:01:13.943Z,55.93
2017-05-23T10:02:13.136Z,55.87
2017-05-23T10:03:13.748Z,55.87
2017-05-23T10:04:14.173Z,55.82
2017-05-23T10:05:11.675Z,55.89
2017-05-23T10:06:14.347Z,55.80
2017-05-23T10:07:13.919Z,55.89
2017-05-23T10:08:13.459Z,55.77
2017-05-23T10:09:14.688Z,55.70
2017-05-23T10:10:15.905Z,55.80
2017-05-23T10:11:13.629Z,55.89
2017-05-23T10:12:14.479Z,55.75
2017-05-23T10:13:14.497Z,55.69
2017-05-23T10:14:14.124Z,55.75
2017-05-23T10:15:15.330Z,55.65
2017-05-23T10:16:14.132Z,55.59
2017-05-23T10:17:14.863Z,55.61
2017-05-23T10:18:14.204Z,55.57
2017-05-23T10:19:13.771Z,55.56
2017-05-23T10:20:14.072Z,55.50
2017-05-23T10:21:15.009Z,55.51
2017-05-23T10:22:13.332Z,55.63
2017-05-23T10:23:14.192Z,55.76
2017-05-23T10:24:14.005Z,55.78
2017-05-23T10:25:13.830Z,55.81
2017-05-23T10:26:15.922Z,55.71
2017-05-23T10:27:13.436Z,55.72
2017-05-23T10:28:12.971Z,55.54
2017-05-23T10:29:14.482Z,55.60
2017-05-23T10:30:13.988Z,55.60
2017-05-23T10:31:13.427Z,55.55
2017-05-23T10:32:14.345Z,55.33
2017-05-23T10:33:11.572Z,54.89
2017-05-23T10:34:14.404Z,54.60
2017-05-23T10:35:14.113Z,54.52
2017-05-23T10:36:16.179Z,54.47
2017-05-23T10:37:14.115Z,54.41
2017-05-23T10:38:14.076Z,54.41
2017-05-23T10:39:14.401Z,54.32
2017-05-23T10:40:15.548Z,54.31
2017-05-23T10:41:15.540Z,54.27
2017-05-23T10:42:14.234Z,54.92
2017-05-23T10:43:11.502Z,55.41
2017-05-23T10:44:14.603Z,55.71
2017-05-23T10:45:10.749Z,55.86
2017-05-23T10:46:13.880Z,55.81
2017-05-23T10:47:14.227Z,55.84
2017-05-23T10:48:14.138Z,55.77
2017-05-23T10:49:13.533Z,55.81
2017-05-23T10:50:14.331Z,55.84
2017-05-23T10:51:13.771Z,56.03
2017-05-23T10:52:14.769Z,55.98
2017-05-23T10:53:14.161Z,55.92
2017-05-23T10:54:13.721Z,55.94
2017-05-23T10:55:14.038Z,55.92
2017-05-23T10:56:14.431Z,55.99
2017-05-23T10:57:14.523Z,55.62
2017-05-23T10:58:13.978Z,54.89
2017-05-23T10:59:14.251Z,55.68
2017-05-23T11:00:13.808Z,55.87
2017-05-23T11:01:15.247Z,55.77
2017-05-23T11:02:14.189Z,55.71
2017-05-23T11:03:13.505Z,55.87
2017-05-23T11:04:14.674Z,55.77
2017-05-23T11:05:15.063Z,55.78
2017-05-23T11:06:14.721Z,55.84
2017-05-23T11:07:14.511Z,55.83
2017-05-23T11:08:14.289Z,55.86
2017-05-23T11:09:13.592Z,55.96
2017-05-23T11:10:15.162Z,56.18
2017-05-23T11:11:14.062Z,56.32
2017-05-23T11:12:11.688Z,56.41
2017-05-23T11:13:14.826Z,56.25
2017-05-23T11:14:15.483Z,56.14
2017-05-23T11:15:13.897Z,56.09
2017-05-23T11:16:12.399Z,55.97
2017-05-23T11:17:14.194Z,55.88
2017-05-23T11:18:14.286Z,55.86
2017-05-23T11:19:14.630Z,55.95
2017-05-23T11:20:14.665Z,56.40
2017-05-23T11:21:15.650Z,56.18
2017-05-23T11:22:14.380Z,56.18
2017-05-23T11:23:15.079Z,56.15
2017-05-23T11:24:13.521Z,56.13
2017-05-23T11:25:14.443Z,56.11
2017-05-23T11:26:14.236Z,56.05
2017-05-23T11:27:11.710Z,56.13
2017-05-23T11:28:13.563Z,55.96
2017-05-23T11:29:14.034Z,55.90
2017-05-23T11:30:13.916Z,55.86
2017-05-23T11:31:13.750Z,55.85
2017-05-23T11:32:14.055Z,55.85
2017-05-23T11:33:13.460Z,55.80
2017-05-23T11:34:14.689Z,55.77
2017-05-23T11:35:14.993Z,55.82
2017-05-23T11:36:13.985Z,55.79
2017-05-23T11:37:13.781Z,56.04
2017-05-23T11:38:15.216Z,55.93
2017-05-23T11:39:13.518Z,55.77
2017-05-23T11:40:14.416Z,56.85
2017-05-23T11:41:14.563Z,56.04
2017-05-23T11:42:14.542Z,55.78
2017-05-23T11:43:15.798Z,55.85
2017-05-23T11:44:14.650Z,55.49
2017-05-23T11:45:15.393Z,55.03
2017-05-23T11:46:14.138Z,54.74
2017-05-23T11:47:14.536Z,54.57
2017-05-23T11:48:14.008Z,55.01
2017-05-23T11:49:13.938Z,54.59
2017-05-23T11:50:14.169Z,54.83
2017-05-23T11:51:13.755Z,54.93
2017-05-23T11:52:14.586Z,55.54
2017-05-23T11:53:14.074Z,55.68
2017-05-23T11:54:14.085Z,55.78
2017-05-23T11:55:14.071Z,55.86
2017-05-23T11:56:13.797Z,55.84
2017-05-23T11:57:12.420Z,55.62
2017-05-23T11:58:14.664Z,55.76
2017-05-23T11:59:14.914Z,55.43
2017-05-23T12:00:13.194Z,54.84
2017-05-23T12:01:14.331Z,54.39
2017-05-23T12:02:13.514Z,54.38
2017-05-23T12:03:14.086Z,54.39
2017-05-23T12:04:13.499Z,54.32
2017-05-23T12:05:12.511Z,54.32
2017-05-23T12:06:14.854Z,53.60
2017-05-23T12:07:15.738Z,53.40
2017-05-23T12:08:14.132Z,53.51
2017-05-23T12:09:13.846Z,54.16
2017-05-23T12:10:13.633Z,54.22
2017-05-23T12:11:10.483Z,54.30
2017-05-23T12:12:14.308Z,54.12
2017-05-23T12:13:13.776Z,54.14
2017-05-23T12:14:14.266Z,54.39
2017-05-23T12:15:14.003Z,54.23
2017-05-23T12:16:10.660Z,54.15
2017-05-23T12:17:13.755Z,53.30
2017-05-23T12:18:15.488Z,53.23
2017-05-23T12:19:14.071Z,53.67
2017-05-23T12:20:15.628Z,53.71
2017-05-23T12:21:12.011Z,54.03
2017-05-23T12:22:16.120Z,54.03
2017-05-23T12:23:14.325Z,54.09
2017-05-23T12:24:14.208Z,54.08
2017-05-23T12:25:13.895Z,53.99
2017-05-23T12:26:15.482Z,54.03
2017-05-23T12:27:13.974Z,54.11
2017-05-23T12:28:13.942Z,54.20
2017-05-23T12:29:13.786Z,54.23
2017-05-23T12:30:14.333Z,54.20
2017-05-23T12:31:14.541Z,54.21
2017-05-23T12:32:13.959Z,54.25
2017-05-23T12:33:13.501Z,54.26
2017-05-23T12:34:14.104Z,54.22
2017-05-23T12:35:13.693Z,54.23
2017-05-23T12:36:14.826Z,54.25
2017-05-23T12:37:14.209Z,54.19
2017-05-23T12:38:16.237Z,54.25
2017-05-23T12:39:14.218Z,54.25
2017-05-23T12:40:14.162Z,54.06
2017-05-23T12:41:13.507Z,53.53
2017-05-23T12:42:14.082Z,53.36
2017-05-23T12:43:13.591Z,53.24
2017-05-23T12:44:14.186Z,53.46
2017-05-23T12:45:13.749Z,54.03
2017-05-23T12:46:14.981Z,54.20
2017-05-23T12:47:10.641Z,54.27
2017-05-23T12:48:14.510Z,54.26
2017-05-23T12:49:14.347Z,54.34
2017-05-23T12:50:13.825Z,54.41
2017-05-23T12:51:14.242Z,54.41
2017-05-23T12:52:13.920Z,54.39
2017-05-23T12:53:13.553Z,54.30
2017-05-23T12:54:11.198Z,54.29
2017-05-23T12:55:14.026Z,54.40
2017-05-23T12:56:13.792Z,54.40
2017-05-23T12:57:14.191Z,54.47
2017-05-23T12:58:13.596Z,54.47
2017-05-23T12:59:14.738Z,54.49
2017-05-23T13:00:15.937Z,54.45
2017-05-23T13:01:13.135Z,54.33
2017-05-23T13:02:13.944Z,54.11
2017-05-23T13:03:13.364Z,53.50
2017-05-23T13:04:14.099Z,53.36
2017-05-23T13:05:13.653Z,53.25
2017-05-23T13:06:12.192Z,53.23
2017-05-23T13:07:14.336Z,53.18
2017-05-23T13:08:13.706Z,54.07
2017-05-23T13:09:13.898Z,54.20
2017-05-23T13:10:15.131Z,54.32
2017-05-23T13:11:11.513Z,54.32
2017-05-23T13:12:14.260Z,54.36
2017-05-23T13:13:14.081Z,54.38
2017-05-23T13:14:13.520Z,54.44
2017-05-23T13:15:15.634Z,54.43
2017-05-23T13:16:14.242Z,54.50
2017-05-23T13:17:11.884Z,54.53
2017-05-23T13:18:14.722Z,54.51
2017-05-23T13:19:14.813Z,54.49
2017-05-23T13:20:14.660Z,54.30
2017-05-23T13:21:14.763Z,53.60
2017-05-23T13:22:15.124Z,53.39
2017-05-23T13:23:13.791Z,53.36
2017-05-23T13:24:11.981Z,53.33
2017-05-23T13:25:14.180Z,53.32
2017-05-23T13:26:13.946Z,53.25
2017-05-23T13:27:11.373Z,53.20
2017-05-23T13:28:14.153Z,54.09
2017-05-23T13:29:14.014Z,54.31
2017-05-23T13:30:13.529Z,54.46
2017-05-23T13:31:14.090Z,54.50
2017-05-23T13:32:13.396Z,54.48
2017-05-23T13:33:13.940Z,54.47
2017-05-23T13:34:13.370Z,54.39
2017-05-23T13:35:14.102Z,54.55
2017-05-23T13:36:13.897Z,54.35
2017-05-23T13:37:14.022Z,53.73
2017-05-23T13:38:13.725Z,53.64
2017-05-23T13:39:14.785Z,53.75
2017-05-23T13:40:14.184Z,54.39
2017-05-23T13:41:14.233Z,54.74
2017-05-23T13:42:14.518Z,54.84
2017-05-23T13:43:14.589Z,55.19
2017-05-23T13:44:14.865Z,55.06
2017-05-23T13:45:12.314Z,55.02
2017-05-23T13:46:13.892Z,54.36
2017-05-23T13:47:13.447Z,54.81
2017-05-23T13:48:14.131Z,54.78
2017-05-23T13:49:13.600Z,54.82
2017-05-23T13:50:14.787Z,54.80
2017-05-23T13:51:14.326Z,55.19
2017-05-23T13:52:14.077Z,55.36
2017-05-23T13:53:15.310Z,55.14
2017-05-23T13:54:11.436Z,55.11
2017-05-23T13:55:14.355Z,54.09
2017-05-23T13:56:11.659Z,53.97
2017-05-23T13:57:14.804Z,53.94
2017-05-23T13:58:12.021Z,53.89
2017-05-23T13:59:14.055Z,53.81
2017-05-23T14:00:13.900Z,54.59
2017-05-23T14:01:12.311Z,54.67
2017-05-23T14:02:14.350Z,53.92
2017-05-23T14:03:14.345Z,53.77
2017-05-23T14:04:13.900Z,53.64
2017-05-23T14:05:12.416Z,54.44
2017-05-23T14:06:14.050Z,54.72
2017-05-23T14:07:14.241Z,54.68
2017-05-23T14:08:14.080Z,54.90
2017-05-23T14:09:14.292Z,54.84
2017-05-23T14:10:14.777Z,54.92
2017-05-23T14:11:14.737Z,54.90
2017-05-23T14:12:15.686Z,54.94
